Time;durP1;ratioP1;P1;durP2;ratioP2;P2;SDS_P1;SDS_P2;PMS_P1;PMS_P2;Temp;Humidity;BMP_temperature;BMP_pressure;BME280_temperature;BME280_humidity;BME280_pressure;Samples;Min_cycle;Max_cycle;Signal;HPM_P1;HPM_P2
2023/01/22 00:02:24;;;;;;;55.72;25.63;;;;;;;-2.79;100.00;103164.75;5248473;28;20029;-66
2023/01/22 00:04:56;;;;;;;56.65;26.02;;;;;;;-2.78;100.00;103174.34;5251447;28;20553;-66
2023/01/22 00:07:27;;;;;;;54.10;25.77;;;;;;;-2.81;100.00;103172.56;5250620;28;20039;-66
2023/01/22 00:10:01;;;;;;;58.95;25.80;;;;;;;-2.79;100.00;103177.81;5254343;28;20506;-66
2023/01/22 00:12:34;;;;;;;;;;;;;;;-2.76;100.00;103185.72;5256760;28;20053;-66
2023/01/22 00:15:05;;;;;;;58.03;25.45;;;;;;;-2.81;100.00;103183.03;5249952;28;19920;-66
2023/01/22 00:17:37;;;;;;;57.17;26.35;;;;;;;-2.79;100.00;103185.66;5252748;28;20091;-66
2023/01/22 00:20:10;;;;;;;59.30;27.05;;;;;;;-2.80;100.00;103181.28;5250414;28;20041;-66
2023/01/22 00:22:41;;;;;;;54.72;27.05;;;;;;;-2.72;100.00;103184.91;5255968;28;20450;-66
2023/01/22 00:25:12;;;;;;;64.70;27.92;;;;;;;-2.76;100.00;103184.00;5255257;28;20032;-66
2023/01/22 00:27:43;;;;;;;54.65;27.25;;;;;;;-2.74;100.00;103181.41;5255510;28;20110;-66
2023/01/22 00:30:15;;;;;;;58.80;29.15;;;;;;;-2.71;100.00;103177.97;5253240;28;20032;-67
2023/01/22 00:32:46;;;;;;;63.53;27.23;;;;;;;-2.69;100.00;103171.88;5258386;28;20040;-67
2023/01/22 00:35:18;;;;;;;60.42;27.48;;;;;;;-2.66;100.00;103176.31;5253169;28;20430;-66
2023/01/22 00:37:49;;;;;;;60.63;28.00;;;;;;;-2.68;100.00;103171.06;5249379;28;20029;-66
2023/01/22 00:40:21;;;;;;;58.88;27.70;;;;;;;-2.67;100.00;103167.56;5246406;28;20033;-67
2023/01/22 00:42:52;;;;;;;61.72;28.67;;;;;;;-2.68;100.00;103157.97;5246251;28;20032;-66
2023/01/22 00:45:23;;;;;;;58.90;27.83;;;;;;;-2.69;100.00;103161.44;5244243;28;20029;-66
2023/01/22 00:47:55;;;;;;;57.42;28.33;;;;;;;-2.65;100.00;103164.97;5246208;28;20037;-67
2023/01/22 00:50:26;;;;;;;61.35;27.30;;;;;;;-2.69;100.00;103161.44;5244804;28;20035;-67
2023/01/22 00:52:57;;;;;;;55.25;26.23;;;;;;;-2.70;100.00;103159.69;5247078;28;20136;-67
2023/01/22 00:55:29;;;;;;;56.40;26.60;;;;;;;-2.71;100.00;103163.16;5243964;28;20471;-67
2023/01/22 00:58:01;;;;;;;56.72;28.23;;;;;;;-2.71;100.00;103164.88;5248183;28;20115;-67
2023/01/22 01:00:32;;;;;;;59.65;28.40;;;;;;;-2.74;100.00;103162.22;5243277;28;20469;-67
2023/01/22 01:05:54;;;;;;;58.15;26.55;;;;;;;-2.76;100.00;103159.59;5230796;28;20472;-67
2023/01/22 01:08:28;;;;;;;55.45;27.23;;;;;;;-2.77;100.00;103143.03;5235572;28;20086;-67
2023/01/22 01:11:03;;;;;;;58.15;27.30;;;;;;;-2.77;100.00;103150.00;5231905;28;20115;-67
2023/01/22 01:13:37;;;;;;;61.28;28.60;;;;;;;-2.77;100.00;103150.00;5233746;28;20044;-67
2023/01/22 01:16:19;;;;;;;57.00;27.77;;;;;;;-2.77;100.00;103139.53;5229507;28;20672;-67
2023/01/22 01:18:50;;;;;;;58.17;26.88;;;;;;;-2.74;100.00;103141.31;5231112;28;20041;-67
2023/01/22 01:21:21;;;;;;;59.58;27.70;;;;;;;-2.78;100.00;103145.59;5238235;28;20041;-67
2023/01/22 01:23:54;;;;;;;61.58;28.60;;;;;;;-2.80;100.00;103144.69;5245176;28;20102;-67
2023/01/22 01:26:26;;;;;;;58.58;27.15;;;;;;;-2.83;100.00;103147.28;5242923;28;20033;-67
2023/01/22 01:28:57;;;;;;;55.17;27.38;;;;;;;-2.87;100.00;103135.91;5244054;28;20759;-67
2023/01/22 01:31:29;;;;;;;56.67;26.70;;;;;;;-2.81;100.00;103138.59;5244152;28;20045;-67
2023/01/22 01:34:01;;;;;;;55.38;26.85;;;;;;;-2.88;100.00;103143.72;5242880;28;20091;-67
2023/01/22 01:36:33;;;;;;;61.15;27.50;;;;;;;-2.90;100.00;103134.97;5239356;28;20033;-67
2023/01/22 01:39:04;;;;;;;58.45;27.50;;;;;;;-2.93;100.00;103127.97;5239295;28;20094;-67
2023/01/22 01:41:35;;;;;;;54.03;26.25;;;;;;;-2.93;100.00;103125.38;5239673;28;20135;-67
2023/01/22 01:44:16;;;;;;;52.47;25.08;;;;;;;-2.94;100.00;103131.44;5236110;28;20041;-68
2023/01/22 01:47:04;;;;;;;52.95;25.75;;;;;;;-2.94;100.00;103118.38;5240855;28;20127;-67
2023/01/22 01:49:37;;;;;;;54.45;25.92;;;;;;;-2.97;100.00;103108.75;5242903;28;20448;-67
2023/01/22 01:52:12;;;;;;;56.50;26.10;;;;;;;-2.96;100.00;103099.19;5240845;28;20039;-67
2023/01/22 01:54:47;;;;;;;53.47;26.55;;;;;;;-2.99;100.00;103099.16;5246045;28;20115;-67
2023/01/22 01:57:22;;;;;;;52.40;25.75;;;;;;;-3.01;100.00;103099.13;5244686;28;20033;-67
2023/01/22 01:59:55;;;;;;;53.10;26.13;;;;;;;-3.02;100.00;103099.97;5242526;28;20131;-67
2023/01/22 02:02:26;;;;;;;48.13;24.35;;;;;;;-3.03;100.00;103097.31;5244936;28;20033;-67
2023/01/22 02:04:57;;;;;;;50.45;24.95;;;;;;;-3.01;100.00;103104.34;5242967;28;20115;-67
2023/01/22 02:07:29;;;;;;;55.65;27.27;;;;;;;-3.03;100.00;103093.00;5241194;28;20451;-67
2023/01/22 02:10:03;;;;;;;53.97;26.30;;;;;;;-3.03;100.00;103098.22;5245618;28;20753;-67
2023/01/22 02:12:35;;;;;;;;;;;;;;;-3.01;100.00;103095.59;5243656;28;20403;-67
2023/01/22 02:15:07;;;;;;;46.08;23.60;;;;;;;-3.05;100.00;103099.94;5245897;28;20783;-67
2023/01/22 02:17:39;;;;;;;50.75;24.80;;;;;;;-3.06;100.00;103090.31;5243936;28;20044;-66
2023/01/22 02:20:10;;;;;;;50.85;25.42;;;;;;;-3.06;100.00;103092.06;5243983;28;20052;-67
2023/01/22 02:22:42;;;;;;;52.80;25.23;;;;;;;-3.04;100.00;103086.00;5241241;28;20052;-67
2023/01/22 02:25:13;;;;;;;47.42;23.23;;;;;;;-3.05;100.00;103079.03;5245111;28;20044;-67
2023/01/22 02:27:44;;;;;;;49.35;24.73;;;;;;;-2.99;100.00;103086.09;5243579;28;20032;-67
2023/01/22 02:30:16;;;;;;;49.17;23.90;;;;;;;-3.02;100.00;103083.41;5243344;28;20036;-67
2023/01/22 02:32:47;;;;;;;46.90;23.00;;;;;;;-3.00;100.00;103084.31;5245442;28;20033;-67
2023/01/22 02:35:18;;;;;;;47.03;23.77;;;;;;;-2.95;100.00;103077.44;5244527;28;20029;-67
2023/01/22 02:37:50;;;;;;;47.97;23.88;;;;;;;-2.94;100.00;103094.84;5245199;28;20075;-67
2023/01/22 02:40:21;;;;;;;43.55;22.75;;;;;;;-2.99;100.00;103086.97;5243496;28;20167;-67
2023/01/22 02:42:52;;;;;;;43.72;22.30;;;;;;;-2.96;100.00;103091.34;5243525;28;20037;-67
2023/01/22 02:45:24;;;;;;;45.88;22.90;;;;;;;-2.95;100.00;103095.72;5239340;28;20057;-67
2023/01/22 02:47:55;;;;;;;44.38;22.10;;;;;;;-2.99;100.00;103097.41;5245586;28;20036;-67
2023/01/22 02:50:26;;;;;;;41.75;22.77;;;;;;;-3.00;100.00;103085.19;5243771;28;20058;-67
2023/01/22 02:52:57;;;;;;;41.40;21.38;;;;;;;-2.93;100.00;103082.66;5242455;28;20037;-67
2023/01/22 02:55:29;;;;;;;41.90;21.38;;;;;;;-2.92;100.00;103076.59;5246650;28;20032;-67
2023/01/22 02:58:00;;;;;;;39.42;21.98;;;;;;;-2.87;100.00;103088.03;5247803;28;20503;-67
2023/01/22 03:00:32;;;;;;;39.90;21.58;;;;;;;-2.85;100.00;103087.19;5243486;28;20036;-67
2023/01/22 03:03:06;;;;;;;42.58;21.67;;;;;;;-2.73;100.00;103096.06;5242954;28;20039;-67
2023/01/22 03:05:37;;;;;;;44.35;22.55;;;;;;;-2.75;100.00;103090.81;5242949;28;20029;-67
2023/01/22 03:08:09;;;;;;;40.22;21.17;;;;;;;-2.67;100.00;103080.47;5242837;28;20063;-67
2023/01/22 03:10:40;;;;;;;38.45;22.52;;;;;;;-2.60;100.00;103077.09;5244467;28;20348;-67
2023/01/22 03:21:42;;;;;;;39.78;20.67;;;;;;;-2.33;100.00;103080.94;5243609;28;20491;-67
2023/01/22 03:24:14;;;;;;;39.95;20.35;;;;;;;-2.29;100.00;103078.38;5244034;28;20041;-67
2023/01/22 03:26:45;;;;;;;37.83;21.30;;;;;;;-2.29;100.00;103073.16;5244034;28;20032;-67
2023/01/22 03:29:16;;;;;;;39.80;21.38;;;;;;;-2.27;100.00;103074.03;5242209;28;20057;-67
2023/01/22 03:31:48;;;;;;;39.58;21.33;;;;;;;-2.22;100.00;103069.75;5243788;28;20028;-67
2023/01/22 03:34:21;;;;;;;37.47;21.17;;;;;;;-2.20;100.00;103070.66;5246034;28;20032;-67
2023/01/22 03:36:53;;;;;;;38.53;21.50;;;;;;;-2.17;100.00;103061.97;5244591;28;20037;-67
2023/01/22 03:39:25;;;;;;;39.60;21.80;;;;;;;-2.16;100.00;103058.50;5249221;28;20294;-67
2023/01/22 03:41:56;;;;;;;35.78;20.90;;;;;;;-2.15;100.00;103056.75;5240458;28;20102;-67
2023/01/22 03:44:27;;;;;;;38.85;21.33;;;;;;;-2.15;100.00;103055.00;5244829;28;20131;-67
2023/01/22 03:46:59;;;;;;;39.90;20.95;;;;;;;-2.11;100.00;103050.69;5243232;28;20103;-67
2023/01/22 03:49:30;;;;;;;38.00;20.42;;;;;;;-2.11;100.00;103048.97;5246016;28;20562;-67
2023/01/22 03:52:01;;;;;;;34.67;20.23;;;;;;;-2.14;100.00;103043.72;5243527;28;20028;-67
2023/01/22 03:54:33;;;;;;;37.35;21.67;;;;;;;-2.16;100.00;103040.19;5244792;28;20037;-67
2023/01/22 03:57:04;;;;;;;33.10;19.67;;;;;;;-2.14;100.00;103045.44;5243309;28;20137;-67
2023/01/22 03:59:35;;;;;;;36.55;20.02;;;;;;;-2.18;100.00;103045.41;5244073;28;20033;-67
2023/01/22 04:02:07;;;;;;;33.50;19.67;;;;;;;-2.18;100.00;103045.41;5245801;28;20044;-67
2023/01/22 04:04:38;;;;;;;34.42;19.80;;;;;;;-2.19;100.00;103048.00;5245252;28;20095;-67
2023/01/22 04:07:09;;;;;;;34.63;20.33;;;;;;;-2.24;100.00;103053.19;5238656;28;20036;-67
2023/01/22 04:09:40;;;;;;;34.17;19.95;;;;;;;-2.24;100.00;103049.69;5241314;28;20482;-67
2023/01/22 04:12:12;;;;;;;32.95;19.40;;;;;;;-2.24;100.00;103060.16;5242899;28;20029;-67
2023/01/22 04:14:43;;;;;;;33.03;19.85;;;;;;;-2.28;100.00;103050.50;5244284;28;20036;-67
2023/01/22 04:17:14;;;;;;;33.03;19.40;;;;;;;-2.30;100.00;103053.09;5241119;28;20033;-67
2023/01/22 04:19:45;;;;;;;34.90;20.27;;;;;;;-2.26;100.00;103051.38;5244100;28;20494;-67
2023/01/22 04:22:17;;;;;;;33.70;19.67;;;;;;;-2.31;100.00;103051.34;5242392;28;20478;-67
2023/01/22 04:24:48;;;;;;;36.38;20.48;;;;;;;-2.27;100.00;103055.75;5246864;28;20752;-67
2023/01/22 04:27:19;;;;;;;38.17;21.70;;;;;;;-2.27;100.00;103057.50;5242183;28;21162;-67
2023/01/22 04:29:51;;;;;;;35.78;20.08;;;;;;;-2.25;100.00;103050.53;5243766;28;20033;-66
2023/01/22 04:32:22;;;;;;;35.13;20.27;;;;;;;-2.25;100.00;103043.56;5242771;28;20037;-67
2023/01/22 04:34:53;;;;;;;34.83;19.70;;;;;;;-2.22;100.00;103053.22;5243033;28;20071;-66
2023/01/22 04:37:24;;;;;;;35.03;18.95;;;;;;;-2.20;100.00;103047.13;5245071;28;21193;-67
2023/01/22 04:39:56;;;;;;;37.65;19.65;;;;;;;-2.18;100.00;103040.16;5245595;28;20037;-67
2023/01/22 04:42:27;;;;;;;34.55;19.55;;;;;;;-2.11;100.00;103041.13;5243728;28;20025;-67
2023/01/22 04:44:58;;;;;;;38.17;20.88;;;;;;;-2.14;100.00;103038.47;5243751;28;20033;-67
2023/01/22 04:47:30;;;;;;;34.30;19.20;;;;;;;-2.10;100.00;103039.41;5244314;28;20017;-67
2023/01/22 04:50:01;;;;;;;33.63;18.90;;;;;;;-2.08;100.00;103049.00;5242657;28;20036;-67
2023/01/22 04:52:32;;;;;;;32.83;19.17;;;;;;;-2.04;100.00;103039.47;5243591;28;20075;-67
2023/01/22 04:55:04;;;;;;;30.13;18.33;;;;;;;-2.02;100.00;103037.72;5242151;28;20033;-67
2023/01/22 04:57:36;;;;;;;34.13;19.25;;;;;;;-1.98;100.00;103039.53;5241797;28;20024;-67
2023/01/22 05:00:09;;;;;;;31.02;18.02;;;;;;;-1.98;100.00;103040.38;5242411;28;20212;-67
2023/01/22 05:02:40;;;;;;;30.17;18.33;;;;;;;-1.99;100.00;103029.94;5241934;28;20638;-67
2023/01/22 05:05:12;;;;;;;29.05;17.45;;;;;;;-1.99;100.00;103025.56;5245948;28;20630;-67
2023/01/22 05:07:43;;;;;;;29.38;16.67;;;;;;;-1.98;100.00;103031.66;5242459;28;20044;-67
2023/01/22 05:10:15;;;;;;;31.30;17.60;;;;;;;-1.96;100.00;103035.19;5244086;28;20029;-67
2023/01/22 05:12:47;;;;;;;31.67;18.00;;;;;;;-1.97;100.00;103036.94;5239938;28;20037;-67
2023/01/22 05:15:18;;;;;;;31.40;17.35;;;;;;;-1.95;100.00;103030.84;5233440;28;20044;-67
2023/01/22 05:17:50;;;;;;;29.08;16.63;;;;;;;-1.93;100.00;103031.75;5242190;28;20036;-67
2023/01/22 05:20:22;;;;;;;29.65;16.50;;;;;;;-1.91;100.00;103033.50;5241591;28;20402;-67
2023/01/22 05:22:53;;;;;;;32.28;17.52;;;;;;;-1.93;100.00;103032.59;5243348;28;20032;-67
2023/01/22 05:25:24;;;;;;;28.75;17.15;;;;;;;-1.88;100.00;103041.41;5245815;28;20061;-67
2023/01/22 05:27:56;;;;;;;27.75;16.38;;;;;;;-1.90;100.00;103044.84;5243412;28;20041;-67
2023/01/22 05:30:27;;;;;;;28.05;16.80;;;;;;;-1.88;100.00;103049.25;5248771;28;20036;-67
2023/01/22 05:32:58;;;;;;;28.05;16.17;;;;;;;-1.86;100.00;103046.63;5247222;28;20044;-67
2023/01/22 05:35:29;;;;;;;27.50;16.65;;;;;;;-1.89;100.00;103047.47;5249705;28;20033;-67
2023/01/22 05:38:01;;;;;;;28.23;17.20;;;;;;;-1.87;100.00;103053.59;5247139;28;20037;-66
2023/01/22 05:40:32;;;;;;;27.23;16.00;;;;;;;-1.88;100.00;103051.88;5249857;28;20028;-67
2023/01/22 05:43:03;;;;;;;30.38;16.83;;;;;;;-1.87;100.00;103058.84;5247647;28;20107;-67
2023/01/22 05:45:35;;;;;;;28.08;17.27;;;;;;;-1.84;100.00;103058.88;5243568;28;20059;-67
2023/01/22 05:48:06;;;;;;;27.00;16.23;;;;;;;-1.85;100.00;103070.19;5245187;28;20024;-67
2023/01/22 05:50:38;;;;;;;27.77;16.15;;;;;;;-1.87;100.00;103064.06;5243837;28;20044;-67
2023/01/22 05:53:10;;;;;;;27.42;16.17;;;;;;;-1.83;100.00;103062.38;5245896;28;20172;-67
2023/01/22 05:55:41;;;;;;;27.35;16.00;;;;;;;-1.82;100.00;103077.22;5248654;28;20486;-67
2023/01/22 05:58:12;;;;;;;28.00;15.95;;;;;;;-1.82;100.00;103074.59;5245024;28;20123;-67
2023/01/22 06:00:43;;;;;;;28.25;16.25;;;;;;;-1.80;100.00;103078.97;5244083;28;20033;-67
2023/01/22 06:03:15;;;;;;;29.48;16.65;;;;;;;-1.79;100.00;103072.88;5245558;28;20033;-66
2023/01/22 06:05:46;;;;;;;29.52;17.05;;;;;;;-1.80;100.00;103078.97;5242066;28;20033;-67
2023/01/22 06:08:17;;;;;;;30.45;17.02;;;;;;;-1.79;100.00;103072.00;5246303;28;20060;-67
2023/01/22 06:10:49;;;;;;;30.50;17.58;;;;;;;-1.82;100.00;103077.22;5247961;28;20029;-67
2023/01/22 06:13:20;;;;;;;29.60;16.92;;;;;;;-1.77;100.00;103073.75;5247027;28;20518;-67
2023/01/22 06:15:52;;;;;;;27.98;16.23;;;;;;;-1.77;100.00;103068.53;5245201;28;20042;-67
2023/01/22 06:18:24;;;;;;;28.77;16.80;;;;;;;-1.75;100.00;103070.28;5240594;28;20031;-67
2023/01/22 06:21:03;;;;;;;29.38;16.67;;;;;;;-1.77;100.00;103068.53;5245071;28;20095;-67
2023/01/22 06:23:34;;;;;;;28.08;16.67;;;;;;;-1.77;100.00;103071.16;5242689;28;20029;-67
2023/01/22 06:26:06;;;;;;;31.65;17.60;;;;;;;-1.77;100.00;103071.16;5246141;28;20167;-67
2023/01/22 06:28:37;;;;;;;33.00;18.17;;;;;;;-1.73;100.00;103076.44;5243424;28;20483;-67
2023/01/22 06:31:08;;;;;;;28.48;16.77;;;;;;;-1.73;100.00;103079.03;5242518;28;21844;-67
2023/01/22 06:33:40;;;;;;;27.70;16.45;;;;;;;-1.74;100.00;103072.06;5243623;28;20045;-67
2023/01/22 06:36:11;;;;;;;29.23;17.27;;;;;;;-1.70;100.00;103073.84;5243538;28;20032;-67
2023/01/22 06:38:42;;;;;;;29.70;16.88;;;;;;;-1.73;100.00;103073.81;5240586;28;20075;-67
2023/01/22 06:41:14;;;;;;;28.67;17.08;;;;;;;-1.73;100.00;103073.81;5240757;28;20021;-67
2023/01/22 06:43:45;;;;;;;25.65;17.02;;;;;;;-1.72;100.00;103071.22;5244306;28;20025;-67
2023/01/22 06:46:16;;;;;;;27.40;16.35;;;;;;;-1.70;100.00;103071.22;5242027;28;20450;-66
2023/01/22 06:48:48;;;;;;;28.52;17.45;;;;;;;-1.71;100.00;103079.94;5245212;28;20518;-67
2023/01/22 06:51:19;;;;;;;31.13;18.08;;;;;;;-1.70;100.00;103079.97;5240795;28;20091;-67
2023/01/22 06:53:50;;;;;;;29.02;16.42;;;;;;;-1.70;100.00;103081.69;5245080;28;20111;-67
2023/01/22 06:56:22;;;;;;;26.98;15.63;;;;;;;-1.70;100.00;103079.09;5244404;28;20036;-67
2023/01/22 06:58:54;;;;;;;28.38;17.25;;;;;;;-1.69;100.00;103083.44;5242999;28;20067;-67
2023/01/22 07:01:25;;;;;;;27.58;16.80;;;;;;;-1.69;100.00;103086.06;5240785;28;20033;-66
2023/01/22 07:03:56;;;;;;;27.13;16.45;;;;;;;-1.68;100.00;103086.06;5241706;28;20041;-67
2023/01/22 07:06:28;;;;;;;28.77;16.92;;;;;;;-1.69;100.00;103081.69;5243375;28;20489;-67
2023/01/22 07:08:59;;;;;;;29.80;17.92;;;;;;;-1.67;100.00;103080.00;5241798;28;20044;-67
2023/01/22 07:11:30;;;;;;;27.33;16.67;;;;;;;-1.64;100.00;103089.63;5243363;28;21730;-66
2023/01/22 07:14:01;;;;;;;30.10;17.35;;;;;;;-1.64;100.00;103084.38;5241261;28;20068;-67
2023/01/22 07:16:33;;;;;;;27.13;16.55;;;;;;;-1.64;100.00;103092.22;5242240;28;20040;-67
2023/01/22 07:19:04;;;;;;;28.90;17.13;;;;;;;-1.64;100.00;103087.88;5239143;28;20059;-67
2023/01/22 07:21:35;;;;;;;28.80;16.23;;;;;;;-1.62;100.00;103085.28;5207366;28;1048761;-66
2023/01/22 07:24:07;;;;;;;26.05;16.08;;;;;;;-1.60;100.00;103086.16;5237547;28;20033;-66
2023/01/22 07:26:38;;;;;;;29.10;16.75;;;;;;;-1.61;100.00;103089.63;5243487;28;20051;-67
2023/01/22 07:29:09;;;;;;;28.25;16.95;;;;;;;-1.61;100.00;103087.00;5241172;28;20806;-66
2023/01/22 07:31:41;;;;;;;28.80;17.17;;;;;;;-1.61;100.00;103087.00;5242950;28;20035;-63
2023/01/22 07:34:12;;;;;;;29.40;17.13;;;;;;;-1.60;100.00;103086.16;5243105;28;20033;-63
2023/01/22 07:36:47;;;;;;;31.30;17.33;;;;;;;-1.58;100.00;103089.66;5244131;28;20032;-63
2023/01/22 07:39:18;;;;;;;27.70;16.27;;;;;;;-1.57;100.00;103086.19;5239493;28;20044;-75
2023/01/22 07:41:49;;;;;;;31.58;17.60;;;;;;;-1.55;100.00;103086.19;5242034;28;20029;-75
2023/01/22 07:44:21;;;;;;;29.33;16.52;;;;;;;-1.53;100.00;103092.31;5243471;28;20410;-75
2023/01/22 07:46:52;;;;;;;25.00;15.30;;;;;;;-1.55;100.00;103088.81;5241236;28;20116;-76
2023/01/22 07:49:23;;;;;;;27.67;16.65;;;;;;;-1.53;100.00;103094.94;5242264;28;20083;-75
2023/01/22 07:51:54;;;;;;;27.40;15.68;;;;;;;-1.51;100.00;103095.88;5241565;28;20042;-75
2023/01/22 07:54:26;;;;;;;27.05;16.08;;;;;;;-1.54;100.00;103098.44;5240765;28;20040;-75
2023/01/22 07:56:57;;;;;;;30.60;18.10;;;;;;;-1.50;100.00;103102.84;5242750;28;20055;-75
2023/01/22 07:59:28;;;;;;;27.40;16.42;;;;;;;-1.51;100.00;103099.34;5240000;28;20303;-75
2023/01/22 08:02:00;;;;;;;25.42;16.52;;;;;;;-1.47;100.00;103095.91;5241602;28;20064;-75
2023/01/22 08:04:31;;;;;;;25.83;16.50;;;;;;;-1.48;100.00;103101.97;5241314;28;20025;-75
2023/01/22 08:07:02;;;;;;;28.85;16.30;;;;;;;-1.46;100.00;103107.25;5240790;28;20581;-76
2023/01/22 08:09:35;;;;;;;26.13;15.77;;;;;;;-1.48;100.00;103099.34;5237828;28;20083;-75
2023/01/22 08:12:06;;;;;;;26.60;16.05;;;;;;;-1.43;100.00;103105.53;5242845;28;20033;-75
2023/01/22 08:14:37;;;;;;;25.70;15.63;;;;;;;-1.41;100.00;103103.81;5237798;28;20029;-75
2023/01/22 08:17:09;;;;;;;26.77;15.63;;;;;;;-1.36;100.00;103109.09;5239287;28;20390;-75
2023/01/22 08:19:40;;;;;;;25.50;15.55;;;;;;;-1.33;100.00;103118.72;5239785;28;20426;-75
2023/01/22 08:22:11;;;;;;;26.05;16.10;;;;;;;-1.31;100.00;103115.25;5242175;28;20056;-75
2023/01/22 08:24:43;;;;;;;22.85;14.77;;;;;;;-1.30;100.00;103114.41;5242782;28;20032;-75
2023/01/22 08:27:14;;;;;;;24.30;15.88;;;;;;;-1.28;100.00;103115.28;5239699;28;20041;-75
2023/01/22 08:29:48;;;;;;;26.45;15.90;;;;;;;-1.23;100.00;103120.56;5241462;28;20025;-75
2023/01/22 08:32:19;;;;;;;26.38;15.70;;;;;;;-1.21;100.00;103121.44;5236335;28;20033;-75
2023/01/22 08:34:53;;;;;;;22.60;14.20;;;;;;;-1.20;100.00;103120.59;5240851;28;20107;-74
2023/01/22 08:37:24;;;;;;;24.52;14.93;;;;;;;-1.16;100.00;103132.84;5239802;28;20518;-75
2023/01/22 08:39:56;;;;;;;22.55;13.40;;;;;;;-1.17;100.00;103127.59;5248143;28;20035;-75
2023/01/22 08:42:27;;;;;;;22.48;14.07;;;;;;;-1.15;100.00;103128.47;5243040;28;20518;-75
2023/01/22 08:44:58;;;;;;;24.08;13.30;;;;;;;-1.13;100.00;103127.66;5240442;28;20528;-75
2023/01/22 08:47:29;;;;;;;21.58;13.75;;;;;;;-1.12;100.00;103125.91;5240810;28;20087;-76
2023/01/22 08:50:01;;;;;;;20.65;12.80;;;;;;;-1.12;100.00;103124.16;5240858;28;20558;-75
2023/01/22 08:52:32;;;;;;;23.67;14.27;;;;;;;-1.08;100.00;103130.31;5244126;28;20028;-76
2023/01/22 08:55:08;;;;;;;21.52;13.10;;;;;;;-1.10;100.00;103124.16;5242027;28;20029;-76
2023/01/22 08:57:39;;;;;;;21.80;12.82;;;;;;;-1.07;100.00;103134.69;5247486;28;20519;-75
2023/01/22 09:00:11;;;;;;;22.50;13.10;;;;;;;-1.06;100.00;103126.81;5240157;28;21222;-75
2023/01/22 09:02:42;;;;;;;21.25;12.77;;;;;;;-1.05;100.00;103131.22;5243450;28;20024;-76
2023/01/22 09:05:14;;;;;;;22.10;13.10;;;;;;;-1.00;100.00;103126.00;5252525;28;20102;-76
2023/01/22 09:07:45;;;;;;;18.25;12.38;;;;;;;-1.03;100.00;103124.25;5246111;28;20024;-75
2023/01/22 09:10:17;;;;;;;20.73;12.43;;;;;;;-1.02;100.00;103127.72;5249353;28;20056;-76
2023/01/22 09:12:48;;;;;;;21.05;13.48;;;;;;;-0.97;100.00;103125.16;5250659;28;20024;-76
2023/01/22 09:15:20;;;;;;;21.02;12.60;;;;;;;-1.01;100.00;103133.00;5249292;28;20075;-75
2023/01/22 09:17:51;;;;;;;21.38;12.70;;;;;;;-0.97;100.00;103133.03;5251452;28;20020;-75
2023/01/22 09:20:22;;;;;;;21.67;13.05;;;;;;;-0.99;100.00;103133.88;5242224;28;22039;-74
2023/01/22 09:22:54;;;;;;;20.85;11.98;;;;;;;-0.96;100.00;103132.16;5238887;28;20067;-76
2023/01/22 09:25:25;;;;;;;22.50;12.32;;;;;;;-0.96;100.00;103134.75;5240180;28;20036;-76
2023/01/22 09:28:00;;;;;;;22.27;12.68;;;;;;;-0.94;100.00;103135.66;5239081;28;20025;-76
2023/01/22 09:30:32;;;;;;;20.70;12.10;;;;;;;-0.86;100.00;103129.63;5239273;28;20148;-76
2023/01/22 09:33:03;;;;;;;18.42;12.27;;;;;;;-0.89;100.00;103137.44;5244010;28;20032;-76
2023/01/22 09:35:34;;;;;;;22.38;12.25;;;;;;;-0.87;100.00;103137.47;5240668;28;20385;-76
2023/01/22 09:38:05;;;;;;;22.10;13.43;;;;;;;-0.82;100.00;103135.78;5236530;28;20252;-76
2023/01/22 09:40:51;;;;;;;18.27;11.70;;;;;;;-0.80;100.00;103144.53;5240309;28;20036;-76
2023/01/22 09:43:36;;;;;;;17.80;12.02;;;;;;;-0.81;100.00;103140.13;5241998;28;20709;-75
2023/01/22 09:46:15;;;;;;;21.38;12.00;;;;;;;-0.73;100.00;103148.06;5241426;28;20559;-75
2023/01/22 09:48:52;;;;;;;20.65;12.63;;;;;;;-0.72;100.00;103142.84;5242540;28;20479;-75
2023/01/22 09:51:23;;;;;;;19.63;12.90;;;;;;;-0.66;100.00;103149.88;5239353;28;20071;-75
2023/01/22 09:53:58;;;;;;;20.25;12.65;;;;;;;-0.70;100.00;103148.09;5242807;28;20671;-75
2023/01/22 09:56:45;;;;;;;20.13;12.52;;;;;;;-0.69;100.00;103148.09;5240980;28;20033;-75
2023/01/22 09:59:40;;;;;;;18.45;12.13;;;;;;;-0.72;100.00;103148.06;5247009;28;20701;-75
2023/01/22 10:02:24;;;;;;;17.67;12.13;;;;;;;-0.73;100.00;103134.94;5238450;28;20044;-75
2023/01/22 10:05:00;;;;;;;20.77;12.43;;;;;;;-0.73;100.00;103142.81;5250276;28;20040;-75
2023/01/22 10:07:38;;;;;;;18.25;12.23;;;;;;;-0.73;100.00;103137.56;5252016;28;20025;-75
2023/01/22 10:10:20;;;;;;;20.17;12.98;;;;;;;-0.71;100.00;103149.84;5250827;28;20040;-75
2023/01/22 10:13:21;;;;;;;19.40;11.95;;;;;;;-0.66;100.00;103153.34;5249715;28;20094;-75
2023/01/22 10:15:54;;;;;;;18.20;11.57;;;;;;;-0.69;100.00;103149.81;5256555;28;20427;-75
2023/01/22 10:18:51;;;;;;;19.17;11.88;;;;;;;-0.66;100.00;103163.84;5256538;28;20048;-75
2023/01/22 10:21:26;;;;;;;19.95;11.60;;;;;;;-0.69;100.00;103163.84;5249239;28;20098;-75
2023/01/22 10:23:58;;;;;;;22.17;12.48;;;;;;;-0.65;100.00;103160.38;5252272;28;20100;-76
2023/01/22 10:26:39;;;;;;;20.45;12.82;;;;;;;-0.64;100.00;103166.47;5250589;28;20075;-76
2023/01/22 10:29:29;;;;;;;17.98;12.30;;;;;;;-0.55;100.00;103163.06;5257698;28;20617;-75
2023/01/22 10:32:21;;;;;;;18.13;12.63;;;;;;;-0.62;100.00;103156.88;5251882;28;20045;-76
2023/01/22 10:35:17;;;;;;;16.48;11.38;;;;;;;-0.61;100.00;103141.16;5247276;28;21596;-75
2023/01/22 10:37:52;;;;;;;22.27;13.30;;;;;;;-0.63;100.00;103148.16;5236366;28;20048;-75
2023/01/22 10:40:26;;;;;;;17.58;11.77;;;;;;;-0.61;100.00;103140.31;5253442;28;20033;-75
2023/01/22 10:43:05;;;;;;;18.83;11.85;;;;;;;-0.62;100.00;103139.41;5252165;28;20061;-75
2023/01/22 10:45:38;;;;;;;21.63;12.75;;;;;;;-0.58;100.00;103144.69;5252685;28;20403;-75
2023/01/22 10:48:17;;;;;;;21.00;12.88;;;;;;;-0.56;100.00;103156.06;5254192;28;20064;-75
2023/01/22 10:51:11;;;;;;;19.45;12.73;;;;;;;-0.57;100.00;103154.31;5253158;28;20454;-75
2023/01/22 10:53:53;;;;;;;18.08;12.40;;;;;;;-0.56;100.00;103158.66;5255944;28;20028;-75
2023/01/22 10:56:32;;;;;;;19.17;11.57;;;;;;;-0.56;100.00;103158.66;5252855;28;20029;-74
2023/01/22 10:59:27;;;;;;;18.27;11.65;;;;;;;-0.51;100.00;103156.97;5252288;28;20033;-74
2023/01/22 11:02:01;;;;;;;16.70;11.55;;;;;;;-0.58;100.00;103160.41;5249937;28;21097;-74
2023/01/22 11:04:33;;;;;;;19.90;13.07;;;;;;;-0.55;100.00;103163.06;5259719;28;20483;-75
2023/01/22 11:07:07;;;;;;;18.10;12.02;;;;;;;-0.57;100.00;103160.44;5260358;28;20028;-74
2023/01/22 11:09:45;;;;;;;19.45;11.70;;;;;;;-0.56;100.00;103149.06;5255407;28;20059;-75
2023/01/22 11:12:25;;;;;;;19.73;12.52;;;;;;;-0.56;100.00;103135.06;5247169;28;20566;-75
2023/01/22 11:15:18;;;;;;;18.90;12.25;;;;;;;-0.55;100.00;103131.59;5248699;28;20032;-75
2023/01/22 11:17:53;;;;;;;18.60;12.07;;;;;;;-0.55;100.00;103136.84;5247207;28;20043;-74
2023/01/22 11:20:24;;;;;;;;;;;;;;;-0.46;100.00;103134.25;5247120;28;20033;-74
2023/01/22 11:23:04;;;;;;;19.98;11.55;;;;;;;-0.51;100.00;103126.38;5248337;28;20001;-75
2023/01/22 11:25:43;;;;;;;16.40;11.23;;;;;;;-0.46;100.00;103135.16;5246820;28;20033;-75
2023/01/22 11:28:28;;;;;;;16.02;11.23;;;;;;;-0.45;100.00;103128.16;5244962;28;20091;-75
2023/01/22 11:30:59;;;;;;;18.13;11.60;;;;;;;-0.43;100.00;103129.03;5246750;28;20512;-74
2023/01/22 11:33:52;;;;;;;15.95;11.02;;;;;;;-0.39;100.00;103130.81;5246090;28;20029;-74
2023/01/22 11:36:39;;;;;;;18.35;12.02;;;;;;;-0.42;100.00;103128.19;5246463;28;20033;-74
2023/01/22 11:39:19;;;;;;;16.65;11.23;;;;;;;-0.43;100.00;103124.66;5248162;28;20163;-74
2023/01/22 11:41:56;;;;;;;18.60;11.57;;;;;;;-0.40;100.00;103121.22;5245230;28;20025;-74